Attica, IN

12:12 PM EDT on August 30, 2014 (GMT -0400)
Warren County, IN | Change Station
CLOSE
Current Station
Personal Weather Station
Location: Attica, IN
Elevation: 615 ft
Nearby Weather Stations

Elev 615 ft 40.35 °N, 87.21 °W | Updated 2 minutes ago

Partly Cloudy
Partly Cloudy
78.6 °F
Feels Like 82 °F
N
3.0
Wind Variable Wind from SW
Gusts 3.0 mph

Today
High -- | Low -- °F
--% Chance of Precip.
Yesterday
High -- | Low -- °F
Precip. -- in
7:14 AM 8:23 PM
Waxing Crescent, 23% visible
Pressure 29.95 in
Visibility 10.0 miles
Clouds Clear
Heat Index 82 °F
Dew Point 73 °F
Humidity 83%
Rainfall 0.10 in
Snow Depth Not available.
UV 7 out of 12
Pollen 8.60 out of 12
Air Quality Not available.
Flu Activity Not available.
METAR KLAF 301554Z 20009G17KT 10SM CLR 26/21 A2997 RMK AO2 SLP142 T02610211

More Conditions Fewer Conditions

Pressure 29.95 in
Visibility 10.0 miles
Clouds Clear
Heat Index 82 °F
Dew Point 73 °F
Humidity 83%
Rainfall 0.10 in
Snow Depth Not available.
UV 7 out of 12
Pollen 8.60 out of 12
Air Quality Not available.
Flu Activity Not available.
METAR KLAF 301554Z 20009G17KT 10SM CLR 26/21 A2997 RMK AO2 SLP142 T02610211

More Conditions Fewer Conditions

10-Day Weather Forecast

Almanac

Astronomy

Aug. 30, 2014 Rise Set
Actual Time 7:14 AM EDT 8:23 PM EDT
Civil Twilight 6:46 AM EDT 8:51 PM EDT
Nautical Twilight 6:12 AM EDT 9:25 PM EDT
Astronomical Twilight 5:37 AM EDT 10:00 PM EDT
Moon 12:02 PM EDT 10:57 PM EDT
Length of Visible Light 14h 05m
Length of Day
13h 09m
Tomorrow will be 2m 33s shorter.
Waxing Crescent, 23% of the Moon is Illuminated
Today
Waxing Crescent
Sep 2
First Quarter
Sep 8
Full
Sep 15
Last Quarter
Sep 24
New

Today's Extremes

State Highs State Lows

Community

WunderPhotos

Upload Photos

1,748,556 photos uploaded!

WunderBlogs® & News

Nearby

Snow Depth

Station Depth Elevation
No new snow has been reported.

Earthquake Activity

City Distance Mag. Time & Date
No recent earthquake activity has been reported nearby.
Minimum magnitude displayed is 2.5.

Coastal Water Temperatures

Place Temperature
No Stations Reporting

Nearby Weather Stations